createdAt,value
2023-04-16T00:03:07.851Z,99758.47
2023-04-16T00:10:27.779Z,99764.91
2023-04-16T00:17:46.689Z,99759.19
2023-04-16T00:25:05.690Z,99751.72
2023-04-16T00:32:25.609Z,99748.34
2023-04-16T00:39:44.397Z,99767.03
2023-04-16T00:47:03.573Z,99766.41
2023-04-16T00:54:23.465Z,99773.25
2023-04-16T01:01:41.888Z,99763.94
2023-04-16T01:09:00.890Z,99774.69
2023-04-16T01:16:21.034Z,99774.81
2023-04-16T01:23:40.866Z,99788.66
2023-04-16T01:31:02.737Z,99791.53
2023-04-16T01:38:31.434Z,99791.16
2023-04-16T01:45:51.780Z,99788.03
2023-04-16T01:53:10.220Z,99780.59
2023-04-16T02:00:28.576Z,99777.31
2023-04-16T02:07:48.454Z,99779.25
2023-04-16T02:15:09.312Z,99797.94
2023-04-16T02:22:27.767Z,99807.13
2023-04-16T02:29:47.624Z,99813.88
2023-04-16T02:37:09.581Z,99820.19
2023-04-16T02:44:27.800Z,99816.50
2023-04-16T02:51:47.458Z,99830.22
2023-04-16T02:59:05.877Z,99833.00
2023-04-16T03:06:24.469Z,99841.09
2023-04-16T03:13:45.076Z,99843.44
2023-04-16T03:21:03.536Z,99850.75
2023-04-16T03:28:21.904Z,99853.59
2023-04-16T03:35:42.296Z,99871.47
2023-04-16T03:43:00.722Z,99865.00
2023-04-16T03:50:20.626Z,99868.88
2023-04-16T03:57:41.954Z,99891.78
2023-04-16T04:05:03.961Z,99894.44
2023-04-16T04:12:22.621Z,99903.81
2023-04-16T04:19:54.333Z,99918.31
2023-04-16T04:27:19.970Z,99913.31
2023-04-16T04:34:38.352Z,99916.75
2023-04-16T04:42:00.516Z,99931.34
2023-04-16T04:49:19.496Z,99928.84
2023-04-16T04:56:38.691Z,99931.75
2023-04-16T05:03:58.447Z,99934.88
2023-04-16T05:11:17.117Z,99950.53
2023-04-16T05:18:35.324Z,99956.25
2023-04-16T05:25:57.431Z,99960.09
2023-04-16T05:33:15.842Z,99983.66
2023-04-16T05:40:34.106Z,99996.72
2023-04-16T05:47:54.025Z,100003.19
2023-04-16T05:55:12.500Z,99998.38
2023-04-16T06:02:32.164Z,100015.47
2023-04-16T06:09:52.090Z,100009.31
2023-04-16T06:17:10.603Z,100024.22
2023-04-16T06:24:28.969Z,100043.44
2023-04-16T06:31:49.921Z,100050.56
2023-04-16T06:39:08.765Z,100049.84
2023-04-16T06:46:27.476Z,100044.88
2023-04-16T06:53:47.521Z,100047.09
2023-04-16T07:01:06.073Z,100049.78
2023-04-16T07:08:24.909Z,100067.31
2023-04-16T07:15:44.753Z,100075.28
2023-04-16T07:23:02.984Z,100078.41
2023-04-16T07:30:21.220Z,100073.66
2023-04-16T07:37:41.577Z,100091.34
2023-04-16T07:44:59.799Z,100092.63
2023-04-16T07:52:18.015Z,100104.19
2023-04-16T07:59:37.571Z,100107.44
2023-04-16T08:06:55.909Z,100105.44
2023-04-16T08:14:13.994Z,100112.59
2023-04-16T08:21:33.747Z,100126.38
2023-04-16T08:28:51.784Z,100116.56
2023-04-16T08:36:09.947Z,100107.19
2023-04-16T08:43:30.476Z,100124.56
2023-04-16T08:50:50.542Z,100135.84
2023-04-16T08:58:14.775Z,100148.88
2023-04-16T09:05:34.734Z,100149.94
2023-04-16T09:12:52.882Z,100153.06
2023-04-16T09:20:12.604Z,100151.47
2023-04-16T09:27:32.382Z,100149.03
2023-04-16T09:34:57.992Z,100157.34
2023-04-16T09:42:16.249Z,100167.91
2023-04-16T09:49:37.277Z,100175.47
2023-04-16T09:56:58.470Z,100174.47
2023-04-16T10:04:17.007Z,100188.44
2023-04-16T10:11:36.887Z,100176.44
2023-04-16T10:18:55.413Z,100179.78
2023-04-16T10:26:13.646Z,100171.41
2023-04-16T10:33:35.234Z,100176.00
2023-04-16T10:41:00.717Z,100183.53
2023-04-16T10:48:20.130Z,100186.97
2023-04-16T10:55:41.216Z,100188.72
2023-04-16T11:02:59.940Z,100178.16
2023-04-16T11:10:18.140Z,100185.78
2023-04-16T11:17:40.598Z,100189.38
2023-04-16T11:24:59.144Z,100181.69
2023-04-16T11:32:22.026Z,100184.53
2023-04-16T11:39:52.179Z,100190.59
2023-04-16T11:47:13.890Z,100196.31
2023-04-16T11:54:35.005Z,100191.31
2023-04-16T12:01:56.237Z,100190.34
2023-04-16T12:09:24.565Z,100181.06
2023-04-16T12:16:42.801Z,100186.25
2023-04-16T12:24:06.993Z,100192.31
2023-04-16T12:31:38.436Z,100177.81
2023-04-16T12:38:56.544Z,100169.66
2023-04-16T12:46:16.429Z,100169.72
2023-04-16T12:53:34.631Z,100173.66
2023-04-16T13:00:52.875Z,100179.28
2023-04-16T13:08:12.857Z,100171.00
2023-04-16T13:15:31.098Z,100182.06
2023-04-16T13:22:49.311Z,100175.34
2023-04-16T13:30:11.810Z,100180.97
2023-04-16T13:37:30.914Z,100169.59
2023-04-16T13:44:53.137Z,100164.47
2023-04-16T13:52:12.701Z,100163.84
2023-04-16T13:59:30.955Z,100166.31
2023-04-16T14:06:54.322Z,100166.91
2023-04-16T14:14:13.925Z,100160.81
2023-04-16T14:21:32.336Z,100169.00
2023-04-16T14:28:53.309Z,100163.66
2023-04-16T14:36:17.906Z,100162.44
2023-04-16T14:43:45.053Z,100159.91
2023-04-16T14:51:04.718Z,100162.56
2023-04-16T14:58:30.534Z,100160.06
2023-04-16T15:05:55.977Z,100164.13
2023-04-16T15:13:14.224Z,100166.25
2023-04-16T15:20:34.075Z,100169.00
2023-04-16T15:27:52.360Z,100177.00
2023-04-16T15:35:11.480Z,100180.16
2023-04-16T15:42:32.535Z,100174.19
2023-04-16T15:49:50.901Z,100190.38
2023-04-16T15:57:09.808Z,100181.66
2023-04-16T16:04:30.338Z,100181.84
2023-04-16T16:11:48.806Z,100187.44
2023-04-16T16:19:08.244Z,100187.00
2023-04-16T16:26:28.260Z,100187.72
2023-04-16T16:33:46.842Z,100192.78
2023-04-16T16:41:05.687Z,100197.03
2023-04-16T16:48:25.838Z,100215.31
2023-04-16T16:55:44.241Z,100229.63
2023-04-16T17:03:02.979Z,100226.88
2023-04-16T17:10:23.523Z,100237.91
2023-04-16T17:17:42.096Z,100242.56
2023-04-16T17:25:00.689Z,100247.38
2023-04-16T17:32:20.727Z,100252.41
2023-04-16T17:39:39.181Z,100253.31
2023-04-16T17:46:59.039Z,100265.25
2023-04-16T17:54:19.546Z,100278.91
2023-04-16T18:01:41.523Z,100292.47
2023-04-16T18:09:00.979Z,100297.41
2023-04-16T18:16:22.728Z,100320.34
2023-04-16T18:23:41.580Z,100317.09
2023-04-16T18:31:04.943Z,100320.25
2023-04-16T18:38:25.050Z,100335.41
2023-04-16T18:45:43.660Z,100333.97
2023-04-16T18:53:02.544Z,100334.97
2023-04-16T19:00:23.150Z,100360.38
2023-04-16T19:07:42.080Z,100371.41
2023-04-16T19:15:03.706Z,100378.19
2023-04-16T19:22:23.724Z,100379.03
2023-04-16T19:29:43.729Z,100381.97
2023-04-16T19:37:02.193Z,100375.69
2023-04-16T19:44:23.634Z,100388.38
2023-04-16T19:51:42.121Z,100375.84
2023-04-16T19:59:15.743Z,100382.88
2023-04-16T20:06:35.785Z,100400.97
2023-04-16T20:13:54.603Z,100396.16
2023-04-16T20:21:13.949Z,100399.53
2023-04-16T20:28:36.893Z,100409.91
2023-04-16T20:35:56.360Z,100410.50
2023-04-16T20:43:19.180Z,100400.28
2023-04-16T20:50:43.367Z,100397.59
2023-04-16T20:58:03.233Z,100411.72
2023-04-16T21:05:25.262Z,100404.13
2023-04-16T21:12:49.650Z,100405.56
2023-04-16T21:20:11.048Z,100405.88
2023-04-16T21:27:30.739Z,100406.13
2023-04-16T21:34:51.250Z,100400.41
2023-04-16T21:42:09.663Z,100388.66
2023-04-16T21:49:27.942Z,100388.03
2023-04-16T21:56:47.794Z,100383.75
2023-04-16T22:04:07.823Z,100380.78
2023-04-16T22:11:26.384Z,100378.81
2023-04-16T22:18:47.513Z,100378.06
2023-04-16T22:26:06.479Z,100374.13
2023-04-16T22:33:25.105Z,100379.56
2023-04-16T22:40:45.294Z,100373.63
2023-04-16T22:48:04.249Z,100372.38
2023-04-16T22:55:23.071Z,100371.75
2023-04-16T23:02:43.384Z,100384.81
2023-04-16T23:10:01.996Z,100365.91
2023-04-16T23:17:21.700Z,100376.72
2023-04-16T23:24:41.541Z,100375.53
2023-04-16T23:31:59.847Z,100384.09
2023-04-16T23:39:18.447Z,100375.06
2023-04-16T23:46:39.535Z,100373.69
2023-04-16T23:53:57.721Z,100374.53
